sensor_id;sensor_type;location;lat;lon;timestamp;temperature;humidity
4431;DHT22;2228;48.140;11.488;2023-04-01T00:00:54;7.70;99.90
4431;DHT22;2228;48.140;11.488;2023-04-01T00:03:22;7.70;99.90
4431;DHT22;2228;48.140;11.488;2023-04-01T00:05:49;7.70;99.90
4431;DHT22;2228;48.140;11.488;2023-04-01T00:08:17;7.80;99.90
4431;DHT22;2228;48.140;11.488;2023-04-01T00:10:44;7.70;99.90
4431;DHT22;2228;48.140;11.488;2023-04-01T00:13:11;7.70;99.90
4431;DHT22;2228;48.140;11.488;2023-04-01T00:15:38;7.70;99.90
4431;DHT22;2228;48.140;11.488;2023-04-01T00:18:07;7.70;99.90
4431;DHT22;2228;48.140;11.488;2023-04-01T00:20:34;7.60;99.90
4431;DHT22;2228;48.140;11.488;2023-04-01T00:23:01;7.70;99.90
4431;DHT22;2228;48.140;11.488;2023-04-01T00:25:28;7.70;99.90
4431;DHT22;2228;48.140;11.488;2023-04-01T00:27:55;7.60;99.90
4431;DHT22;2228;48.140;11.488;2023-04-01T00:30:22;7.60;99.90
4431;DHT22;2228;48.140;11.488;2023-04-01T00:32:51;7.50;99.90
4431;DHT22;2228;48.140;11.488;2023-04-01T00:35:20;7.60;99.90
4431;DHT22;2228;48.140;11.488;2023-04-01T00:37:47;7.60;99.90
4431;DHT22;2228;48.140;11.488;2023-04-01T00:40:24;7.60;99.90
4431;DHT22;2228;48.140;11.488;2023-04-01T00:42:51;7.50;99.90
4431;DHT22;2228;48.140;11.488;2023-04-01T00:45:35;7.60;99.90
4431;DHT22;2228;48.140;11.488;2023-04-01T00:48:05;7.60;99.90
4431;DHT22;2228;48.140;11.488;2023-04-01T00:50:34;7.60;99.90
4431;DHT22;2228;48.140;11.488;2023-04-01T00:53:03;7.50;99.90
4431;DHT22;2228;48.140;11.488;2023-04-01T00:55:33;7.70;99.90
4431;DHT22;2228;48.140;11.488;2023-04-01T00:58:03;7.60;99.90
4431;DHT22;2228;48.140;11.488;2023-04-01T01:00:31;7.70;99.90
4431;DHT22;2228;48.140;11.488;2023-04-01T01:02:58;7.60;99.90
4431;DHT22;2228;48.140;11.488;2023-04-01T01:05:33;7.70;99.90
4431;DHT22;2228;48.140;11.488;2023-04-01T01:08:12;7.60;99.90
4431;DHT22;2228;48.140;11.488;2023-04-01T01:10:43;7.70;99.90
4431;DHT22;2228;48.140;11.488;2023-04-01T01:13:17;7.70;99.90
4431;DHT22;2228;48.140;11.488;2023-04-01T01:15:50;7.90;99.90
4431;DHT22;2228;48.140;11.488;2023-04-01T01:18:27;7.80;99.90
4431;DHT22;2228;48.140;11.488;2023-04-01T01:21:44;7.90;99.90
4431;DHT22;2228;48.140;11.488;2023-04-01T01:24:26;8.00;99.40
4431;DHT22;2228;48.140;11.488;2023-04-01T01:27:03;8.00;99.90
4431;DHT22;2228;48.140;11.488;2023-04-01T01:30:08;8.10;74.00
4431;DHT22;2228;48.140;11.488;2023-04-01T01:33:17;8.10;90.10
4431;DHT22;2228;48.140;11.488;2023-04-01T01:35:51;8.10;70.70
4431;DHT22;2228;48.140;11.488;2023-04-01T01:38:21;7.90;99.90
4431;DHT22;2228;48.140;11.488;2023-04-01T01:40:50;8.00;98.20
4431;DHT22;2228;48.140;11.488;2023-04-01T01:43:22;7.90;99.90
4431;DHT22;2228;48.140;11.488;2023-04-01T01:45:53;7.80;99.90
4431;DHT22;2228;48.140;11.488;2023-04-01T01:48:22;7.90;99.90
4431;DHT22;2228;48.140;11.488;2023-04-01T01:50:52;7.90;99.90
4431;DHT22;2228;48.140;11.488;2023-04-01T01:53:19;8.00;94.40
4431;DHT22;2228;48.140;11.488;2023-04-01T01:55:47;8.00;80.20
4431;DHT22;2228;48.140;11.488;2023-04-01T01:58:19;7.90;99.90
4431;DHT22;2228;48.140;11.488;2023-04-01T02:00:49;7.90;78.10
4431;DHT22;2228;48.140;11.488;2023-04-01T02:03:19;8.00;56.20
4431;DHT22;2228;48.140;11.488;2023-04-01T02:05:47;8.00;46.70
4431;DHT22;2228;48.140;11.488;2023-04-01T02:08:18;8.10;35.50
4431;DHT22;2228;48.140;11.488;2023-04-01T02:10:56;8.00;51.20
4431;DHT22;2228;48.140;11.488;2023-04-01T02:13:29;8.10;33.70
4431;DHT22;2228;48.140;11.488;2023-04-01T02:16:00;7.90;29.00
4431;DHT22;2228;48.140;11.488;2023-04-01T02:18:32;8.00;36.60
4431;DHT22;2228;48.140;11.488;2023-04-01T02:21:02;8.00;35.20
4431;DHT22;2228;48.140;11.488;2023-04-01T02:23:32;7.90;29.30
4431;DHT22;2228;48.140;11.488;2023-04-01T02:26:00;8.00;38.60
4431;DHT22;2228;48.140;11.488;2023-04-01T02:28:28;7.90;71.70
4431;DHT22;2228;48.140;11.488;2023-04-01T02:30:57;7.70;91.60
4431;DHT22;2228;48.140;11.488;2023-04-01T02:33:28;7.80;57.20
4431;DHT22;2228;48.140;11.488;2023-04-01T02:35:56;7.90;30.00
4431;DHT22;2228;48.140;11.488;2023-04-01T02:38:24;7.90;44.80
4431;DHT22;2228;48.140;11.488;2023-04-01T02:40:57;8.00;29.30
4431;DHT22;2228;48.140;11.488;2023-04-01T02:43:24;8.00;21.20
4431;DHT22;2228;48.140;11.488;2023-04-01T02:45:51;8.00;12.30
4431;DHT22;2228;48.140;11.488;2023-04-01T02:48:18;7.90;20.60
4431;DHT22;2228;48.140;11.488;2023-04-01T02:50:45;7.90;28.80
4431;DHT22;2228;48.140;11.488;2023-04-01T02:53:12;7.80;44.70
4431;DHT22;2228;48.140;11.488;2023-04-01T02:55:38;7.90;29.80
4431;DHT22;2228;48.140;11.488;2023-04-01T02:58:07;7.80;48.60
4431;DHT22;2228;48.140;11.488;2023-04-01T03:00:34;7.80;52.90
4431;DHT22;2228;48.140;11.488;2023-04-01T03:03:00;7.80;45.90
4431;DHT22;2228;48.140;11.488;2023-04-01T03:05:28;7.80;43.90
4431;DHT22;2228;48.140;11.488;2023-04-01T03:07:55;7.80;41.50
4431;DHT22;2228;48.140;11.488;2023-04-01T03:10:22;7.80;43.30
4431;DHT22;2228;48.140;11.488;2023-04-01T03:12:49;7.70;49.30
4431;DHT22;2228;48.140;11.488;2023-04-01T03:15:17;7.70;72.70
4431;DHT22;2228;48.140;11.488;2023-04-01T03:17:44;7.80;41.10
4431;DHT22;2228;48.140;11.488;2023-04-01T03:20:12;7.70;41.10
4431;DHT22;2228;48.140;11.488;2023-04-01T03:22:40;7.70;62.90
4431;DHT22;2228;48.140;11.488;2023-04-01T03:25:08;7.70;58.10
4431;DHT22;2228;48.140;11.488;2023-04-01T03:27:36;7.60;71.00
4431;DHT22;2228;48.140;11.488;2023-04-01T03:30:05;7.50;65.10
4431;DHT22;2228;48.140;11.488;2023-04-01T03:32:33;7.50;56.80
4431;DHT22;2228;48.140;11.488;2023-04-01T03:35:00;7.40;69.40
4431;DHT22;2228;48.140;11.488;2023-04-01T03:37:27;7.40;85.10
4431;DHT22;2228;48.140;11.488;2023-04-01T03:39:54;7.30;94.90
4431;DHT22;2228;48.140;11.488;2023-04-01T03:42:21;7.30;98.40
4431;DHT22;2228;48.140;11.488;2023-04-01T03:44:48;7.30;99.90
4431;DHT22;2228;48.140;11.488;2023-04-01T03:47:15;7.30;99.60
4431;DHT22;2228;48.140;11.488;2023-04-01T03:49:43;7.30;99.90
4431;DHT22;2228;48.140;11.488;2023-04-01T03:52:10;7.30;99.90
4431;DHT22;2228;48.140;11.488;2023-04-01T03:54:37;7.30;99.90
4431;DHT22;2228;48.140;11.488;2023-04-01T03:57:05;7.30;99.90
4431;DHT22;2228;48.140;11.488;2023-04-01T03:59:32;7.40;99.90
4431;DHT22;2228;48.140;11.488;2023-04-01T04:01:59;7.30;99.90
4431;DHT22;2228;48.140;11.488;2023-04-01T04:04:27;7.30;99.90
4431;DHT22;2228;48.140;11.488;2023-04-01T04:06:55;7.20;99.90
4431;DHT22;2228;48.140;11.488;2023-04-01T04:09:23;7.30;99.90
4431;DHT22;2228;48.140;11.488;2023-04-01T04:11:49;7.20;99.90
4431;DHT22;2228;48.140;11.488;2023-04-01T04:14:16;7.20;99.90
4431;DHT22;2228;48.140;11.488;2023-04-01T04:16:43;7.20;99.90
4431;DHT22;2228;48.140;11.488;2023-04-01T04:19:10;7.30;99.90
4431;DHT22;2228;48.140;11.488;2023-04-01T04:21:37;7.40;99.90
4431;DHT22;2228;48.140;11.488;2023-04-01T04:24:05;7.30;99.90
4431;DHT22;2228;48.140;11.488;2023-04-01T04:26:32;7.40;99.90
4431;DHT22;2228;48.140;11.488;2023-04-01T04:29:00;7.40;99.90
4431;DHT22;2228;48.140;11.488;2023-04-01T04:31:27;7.30;99.90
4431;DHT22;2228;48.140;11.488;2023-04-01T04:33:54;7.40;99.90
4431;DHT22;2228;48.140;11.488;2023-04-01T04:36:21;7.40;99.90
4431;DHT22;2228;48.140;11.488;2023-04-01T04:38:48;7.50;99.90
4431;DHT22;2228;48.140;11.488;2023-04-01T04:41:18;7.40;99.90
4431;DHT22;2228;48.140;11.488;2023-04-01T04:43:50;7.50;99.90
4431;DHT22;2228;48.140;11.488;2023-04-01T04:46:17;7.50;99.90
4431;DHT22;2228;48.140;11.488;2023-04-01T04:48:44;7.40;99.90
4431;DHT22;2228;48.140;11.488;2023-04-01T04:51:13;7.50;99.90
4431;DHT22;2228;48.140;11.488;2023-04-01T04:53:41;7.50;99.90
4431;DHT22;2228;48.140;11.488;2023-04-01T04:56:08;7.60;99.90
4431;DHT22;2228;48.140;11.488;2023-04-01T04:58:36;7.70;92.00
4431;DHT22;2228;48.140;11.488;2023-04-01T05:01:08;7.80;81.20
4431;DHT22;2228;48.140;11.488;2023-04-01T05:03:36;7.90;62.80
4431;DHT22;2228;48.140;11.488;2023-04-01T05:06:04;7.90;44.20
4431;DHT22;2228;48.140;11.488;2023-04-01T05:08:31;7.90;38.70
4431;DHT22;2228;48.140;11.488;2023-04-01T05:10:58;7.90;41.00
4431;DHT22;2228;48.140;11.488;2023-04-01T05:13:25;7.90;39.40
4431;DHT22;2228;48.140;11.488;2023-04-01T05:15:53;7.90;11.90
4431;DHT22;2228;48.140;11.488;2023-04-01T05:18:20;7.90;13.10
4431;DHT22;2228;48.140;11.488;2023-04-01T05:20:48;7.90;1.00
4431;DHT22;2228;48.140;11.488;2023-04-01T05:23:15;8.00;1.00
4431;DHT22;2228;48.140;11.488;2023-04-01T05:25:43;8.10;1.00
4431;DHT22;2228;48.140;11.488;2023-04-01T05:28:10;8.10;1.00
4431;DHT22;2228;48.140;11.488;2023-04-01T05:30:39;8.20;1.00
4431;DHT22;2228;48.140;11.488;2023-04-01T05:33:07;7.90;1.00
4431;DHT22;2228;48.140;11.488;2023-04-01T05:35:34;8.00;1.00
4431;DHT22;2228;48.140;11.488;2023-04-01T05:38:01;8.00;1.00
4431;DHT22;2228;48.140;11.488;2023-04-01T05:40:29;8.10;1.00
4431;DHT22;2228;48.140;11.488;2023-04-01T05:42:55;8.00;1.00
4431;DHT22;2228;48.140;11.488;2023-04-01T05:45:22;8.00;1.00
4431;DHT22;2228;48.140;11.488;2023-04-01T05:47:49;8.00;1.00
4431;DHT22;2228;48.140;11.488;2023-04-01T05:50:18;8.10;1.00
4431;DHT22;2228;48.140;11.488;2023-04-01T05:52:45;8.00;1.00
4431;DHT22;2228;48.140;11.488;2023-04-01T05:55:12;8.10;1.00
4431;DHT22;2228;48.140;11.488;2023-04-01T05:57:39;8.20;1.00
4431;DHT22;2228;48.140;11.488;2023-04-01T06:00:06;8.20;1.00
4431;DHT22;2228;48.140;11.488;2023-04-01T06:02:33;8.20;1.00
4431;DHT22;2228;48.140;11.488;2023-04-01T06:05:11;8.20;1.00
4431;DHT22;2228;48.140;11.488;2023-04-01T06:07:40;8.20;1.00
4431;DHT22;2228;48.140;11.488;2023-04-01T06:10:12;8.20;1.00
4431;DHT22;2228;48.140;11.488;2023-04-01T06:12:48;8.30;1.00
4431;DHT22;2228;48.140;11.488;2023-04-01T06:15:29;8.30;1.00
4431;DHT22;2228;48.140;11.488;2023-04-01T06:18:31;8.30;1.00
4431;DHT22;2228;48.140;11.488;2023-04-01T06:21:10;8.50;1.00
4431;DHT22;2228;48.140;11.488;2023-04-01T06:23:54;8.50;1.00
4431;DHT22;2228;48.140;11.488;2023-04-01T06:26:34;8.50;1.00
4431;DHT22;2228;48.140;11.488;2023-04-01T06:29:39;8.60;1.00
4431;DHT22;2228;48.140;11.488;2023-04-01T06:32:31;8.60;1.00
4431;DHT22;2228;48.140;11.488;2023-04-01T06:35:28;8.50;1.00
4431;DHT22;2228;48.140;11.488;2023-04-01T06:38:19;8.60;1.00
4431;DHT22;2228;48.140;11.488;2023-04-01T06:41:04;8.70;1.00
4431;DHT22;2228;48.140;11.488;2023-04-01T06:43:41;8.70;1.00
4431;DHT22;2228;48.140;11.488;2023-04-01T06:46:12;8.70;1.00
4431;DHT22;2228;48.140;11.488;2023-04-01T06:49:07;8.90;1.00
4431;DHT22;2228;48.140;11.488;2023-04-01T06:51:44;8.90;1.00
4431;DHT22;2228;48.140;11.488;2023-04-01T06:54:17;8.80;1.00
4431;DHT22;2228;48.140;11.488;2023-04-01T06:56:49;9.10;1.00
4431;DHT22;2228;48.140;11.488;2023-04-01T06:59:24;9.20;1.00
4431;DHT22;2228;48.140;11.488;2023-04-01T07:01:53;9.30;1.00
4431;DHT22;2228;48.140;11.488;2023-04-01T07:04:24;9.30;1.00
4431;DHT22;2228;48.140;11.488;2023-04-01T07:06:54;9.50;1.00
4431;DHT22;2228;48.140;11.488;2023-04-01T07:09:25;9.70;1.00
4431;DHT22;2228;48.140;11.488;2023-04-01T07:11:59;9.70;1.00
4431;DHT22;2228;48.140;11.488;2023-04-01T07:14:30;9.70;1.00
4431;DHT22;2228;48.140;11.488;2023-04-01T07:17:00;9.70;1.00
4431;DHT22;2228;48.140;11.488;2023-04-01T07:19:33;9.60;1.00
4431;DHT22;2228;48.140;11.488;2023-04-01T07:22:05;9.50;1.00
4431;DHT22;2228;48.140;11.488;2023-04-01T07:24:34;9.70;1.00
4431;DHT22;2228;48.140;11.488;2023-04-01T07:27:05;9.90;1.00
4431;DHT22;2228;48.140;11.488;2023-04-01T07:29:35;9.70;1.00
4431;DHT22;2228;48.140;11.488;2023-04-01T07:32:13;10.00;1.00
4431;DHT22;2228;48.140;11.488;2023-04-01T07:34:52;10.20;1.00
4431;DHT22;2228;48.140;11.488;2023-04-01T07:37:26;10.30;1.00
4431;DHT22;2228;48.140;11.488;2023-04-01T07:40:01;10.40;1.00
4431;DHT22;2228;48.140;11.488;2023-04-01T07:42:42;10.60;1.00
4431;DHT22;2228;48.140;11.488;2023-04-01T07:45:20;10.70;1.00
4431;DHT22;2228;48.140;11.488;2023-04-01T07:48:09;10.60;1.00
4431;DHT22;2228;48.140;11.488;2023-04-01T07:50:41;10.40;1.00
4431;DHT22;2228;48.140;11.488;2023-04-01T07:53:15;10.40;1.00
4431;DHT22;2228;48.140;11.488;2023-04-01T07:55:50;10.40;1.00
4431;DHT22;2228;48.140;11.488;2023-04-01T07:58:24;10.40;1.00
4431;DHT22;2228;48.140;11.488;2023-04-01T08:00:59;10.40;1.00
4431;DHT22;2228;48.140;11.488;2023-04-01T08:03:43;10.40;1.00
4431;DHT22;2228;48.140;11.488;2023-04-01T08:06:19;10.40;1.00
4431;DHT22;2228;48.140;11.488;2023-04-01T08:08:58;10.20;1.00
4431;DHT22;2228;48.140;11.488;2023-04-01T08:11:39;10.20;1.00
4431;DHT22;2228;48.140;11.488;2023-04-01T08:14:17;10.10;1.00
4431;DHT22;2228;48.140;11.488;2023-04-01T08:16:53;10.20;1.00
4431;DHT22;2228;48.140;11.488;2023-04-01T08:19:35;10.40;1.00
4431;DHT22;2228;48.140;11.488;2023-04-01T08:22:12;10.60;1.00
4431;DHT22;2228;48.140;11.488;2023-04-01T08:24:45;10.70;1.00
4431;DHT22;2228;48.140;11.488;2023-04-01T08:27:17;11.00;1.00
4431;DHT22;2228;48.140;11.488;2023-04-01T08:29:52;10.70;1.00
4431;DHT22;2228;48.140;11.488;2023-04-01T08:32:28;10.70;1.00
4431;DHT22;2228;48.140;11.488;2023-04-01T08:35:11;10.80;1.00
4431;DHT22;2228;48.140;11.488;2023-04-01T08:37:42;10.90;1.00
4431;DHT22;2228;48.140;11.488;2023-04-01T08:40:33;11.10;1.00
4431;DHT22;2228;48.140;11.488;2023-04-01T08:43:09;11.00;1.00
4431;DHT22;2228;48.140;11.488;2023-04-01T08:45:56;11.30;1.00
4431;DHT22;2228;48.140;11.488;2023-04-01T08:48:53;11.40;1.00
4431;DHT22;2228;48.140;11.488;2023-04-01T08:54:46;11.60;1.00
4431;DHT22;2228;48.140;11.488;2023-04-01T08:57:21;11.40;1.00
4431;DHT22;2228;48.140;11.488;2023-04-01T09:00:04;11.30;1.00
4431;DHT22;2228;48.140;11.488;2023-04-01T09:08:31;12.10;1.00
4431;DHT22;2228;48.140;11.488;2023-04-01T09:11:21;12.10;1.00
4431;DHT22;2228;48.140;11.488;2023-04-01T09:14:23;11.90;1.00
4431;DHT22;2228;48.140;11.488;2023-04-01T09:17:26;12.10;1.00
4431;DHT22;2228;48.140;11.488;2023-04-01T09:20:14;12.50;1.00
4431;DHT22;2228;48.140;11.488;2023-04-01T09:22:55;12.40;1.00
4431;DHT22;2228;48.140;11.488;2023-04-01T09:25:38;12.00;1.00
4431;DHT22;2228;48.140;11.488;2023-04-01T09:28:14;12.00;1.00
4431;DHT22;2228;48.140;11.488;2023-04-01T09:31:12;11.90;1.00
4431;DHT22;2228;48.140;11.488;2023-04-01T09:34:03;12.10;1.00
4431;DHT22;2228;48.140;11.488;2023-04-01T09:36:44;12.10;1.00
4431;DHT22;2228;48.140;11.488;2023-04-01T09:39:24;12.30;1.00
4431;DHT22;2228;48.140;11.488;2023-04-01T09:42:13;12.70;1.00
4431;DHT22;2228;48.140;11.488;2023-04-01T09:44:58;12.90;1.00
4431;DHT22;2228;48.140;11.488;2023-04-01T09:47:45;12.90;1.00
4431;DHT22;2228;48.140;11.488;2023-04-01T09:50:31;13.00;1.00
4431;DHT22;2228;48.140;11.488;2023-04-01T09:53:20;13.10;1.00
4431;DHT22;2228;48.140;11.488;2023-04-01T10:02:40;12.90;1.00
4431;DHT22;2228;48.140;11.488;2023-04-01T10:05:33;12.70;1.00
4431;DHT22;2228;48.140;11.488;2023-04-01T10:08:34;12.70;1.00
4431;DHT22;2228;48.140;11.488;2023-04-01T10:17:33;12.60;1.00
4431;DHT22;2228;48.140;11.488;2023-04-01T10:23:36;12.90;1.00
4431;DHT22;2228;48.140;11.488;2023-04-01T10:29:42;12.80;1.00
4431;DHT22;2228;48.140;11.488;2023-04-01T10:33:06;12.60;1.00
4431;DHT22;2228;48.140;11.488;2023-04-01T10:36:28;12.50;1.00
4431;DHT22;2228;48.140;11.488;2023-04-01T10:48:13;12.30;1.00
4431;DHT22;2228;48.140;11.488;2023-04-01T10:51:01;12.00;1.00
4431;DHT22;2228;48.140;11.488;2023-04-01T10:53:40;11.80;1.00
4431;DHT22;2228;48.140;11.488;2023-04-01T10:56:33;11.70;1.00
4431;DHT22;2228;48.140;11.488;2023-04-01T11:15:36;9.80;1.00
4431;DHT22;2228;48.140;11.488;2023-04-01T11:18:49;10.00;1.00
4431;DHT22;2228;48.140;11.488;2023-04-01T11:21:46;10.00;1.00
4431;DHT22;2228;48.140;11.488;2023-04-01T11:24:35;10.10;1.00
4431;DHT22;2228;48.140;11.488;2023-04-01T11:27:18;10.30;1.00
4431;DHT22;2228;48.140;11.488;2023-04-01T11:30:05;10.50;1.00
4431;DHT22;2228;48.140;11.488;2023-04-01T11:32:46;10.30;1.00
4431;DHT22;2228;48.140;11.488;2023-04-01T11:38:26;10.20;1.00
4431;DHT22;2228;48.140;11.488;2023-04-01T11:41:01;10.30;1.00
4431;DHT22;2228;48.140;11.488;2023-04-01T11:43:32;10.40;1.00
4431;DHT22;2228;48.140;11.488;2023-04-01T11:46:07;10.10;1.00
4431;DHT22;2228;48.140;11.488;2023-04-01T11:49:00;9.60;1.00
4431;DHT22;2228;48.140;11.488;2023-04-01T11:51:55;9.20;35.60
4431;DHT22;2228;48.140;11.488;2023-04-01T11:54:44;8.80;99.90
4431;DHT22;2228;48.140;11.488;2023-04-01T11:57:34;8.80;99.90
4431;DHT22;2228;48.140;11.488;2023-04-01T12:00:30;8.60;99.90
4431;DHT22;2228;48.140;11.488;2023-04-01T12:03:17;8.50;99.90
4431;DHT22;2228;48.140;11.488;2023-04-01T12:05:51;8.50;99.90
4431;DHT22;2228;48.140;11.488;2023-04-01T12:08:36;8.50;99.90
4431;DHT22;2228;48.140;11.488;2023-04-01T12:11:11;8.50;1.00
4431;DHT22;2228;48.140;11.488;2023-04-01T12:13:49;8.40;99.90
4431;DHT22;2228;48.140;11.488;2023-04-01T12:16:36;8.40;1.00
4431;DHT22;2228;48.140;11.488;2023-04-01T12:19:15;8.30;99.90
4431;DHT22;2228;48.140;11.488;2023-04-01T12:21:52;8.20;99.90
4431;DHT22;2228;48.140;11.488;2023-04-01T12:24:49;8.10;1.00
4431;DHT22;2228;48.140;11.488;2023-04-01T12:27:45;8.00;99.90
4431;DHT22;2228;48.140;11.488;2023-04-01T12:30:37;8.00;1.00
4431;DHT22;2228;48.140;11.488;2023-04-01T12:33:40;8.00;1.00
4431;DHT22;2228;48.140;11.488;2023-04-01T12:36:23;8.10;99.90
4431;DHT22;2228;48.140;11.488;2023-04-01T12:39:14;8.00;1.00
4431;DHT22;2228;48.140;11.488;2023-04-01T12:41:51;8.10;1.00
4431;DHT22;2228;48.140;11.488;2023-04-01T12:44:43;8.20;99.90
4431;DHT22;2228;48.140;11.488;2023-04-01T12:47:31;8.10;99.90
4431;DHT22;2228;48.140;11.488;2023-04-01T12:50:23;8.10;99.90
4431;DHT22;2228;48.140;11.488;2023-04-01T12:53:11;8.10;99.90
4431;DHT22;2228;48.140;11.488;2023-04-01T12:55:44;8.10;99.90
4431;DHT22;2228;48.140;11.488;2023-04-01T12:58:59;8.10;99.90
4431;DHT22;2228;48.140;11.488;2023-04-01T13:01:43;8.20;99.90
4431;DHT22;2228;48.140;11.488;2023-04-01T13:04:47;8.10;99.90
4431;DHT22;2228;48.140;11.488;2023-04-01T13:07:46;8.10;99.90
4431;DHT22;2228;48.140;11.488;2023-04-01T13:10:26;8.10;99.90
4431;DHT22;2228;48.140;11.488;2023-04-01T13:13:07;8.30;99.90
4431;DHT22;2228;48.140;11.488;2023-04-01T13:15:41;8.20;99.90
4431;DHT22;2228;48.140;11.488;2023-04-01T13:18:18;8.30;99.90
4431;DHT22;2228;48.140;11.488;2023-04-01T13:20:54;8.30;99.90
4431;DHT22;2228;48.140;11.488;2023-04-01T13:23:34;8.20;99.90
4431;DHT22;2228;48.140;11.488;2023-04-01T13:26:13;8.30;99.90
4431;DHT22;2228;48.140;11.488;2023-04-01T13:28:43;8.20;99.90
4431;DHT22;2228;48.140;11.488;2023-04-01T13:31:24;8.20;99.90
4431;DHT22;2228;48.140;11.488;2023-04-01T13:34:04;8.30;99.90
4431;DHT22;2228;48.140;11.488;2023-04-01T13:36:44;8.20;99.90
4431;DHT22;2228;48.140;11.488;2023-04-01T13:39:24;8.20;1.00
4431;DHT22;2228;48.140;11.488;2023-04-01T13:42:07;8.10;1.00
4431;DHT22;2228;48.140;11.488;2023-04-01T13:44:42;8.20;1.00
4431;DHT22;2228;48.140;11.488;2023-04-01T13:47:41;8.20;1.00
4431;DHT22;2228;48.140;11.488;2023-04-01T13:53:28;8.40;1.00
4431;DHT22;2228;48.140;11.488;2023-04-01T13:56:15;8.40;1.00
4431;DHT22;2228;48.140;11.488;2023-04-01T13:58:58;8.50;99.90
4431;DHT22;2228;48.140;11.488;2023-04-01T14:01:35;8.60;99.90
4431;DHT22;2228;48.140;11.488;2023-04-01T14:04:45;8.60;99.90
4431;DHT22;2228;48.140;11.488;2023-04-01T14:07:30;8.70;1.00
4431;DHT22;2228;48.140;11.488;2023-04-01T14:10:07;8.70;1.00
4431;DHT22;2228;48.140;11.488;2023-04-01T14:12:40;8.70;99.90
4431;DHT22;2228;48.140;11.488;2023-04-01T14:15:26;8.70;1.00
4431;DHT22;2228;48.140;11.488;2023-04-01T14:18:08;8.60;99.90
4431;DHT22;2228;48.140;11.488;2023-04-01T14:20:40;8.60;99.90
4431;DHT22;2228;48.140;11.488;2023-04-01T14:23:36;8.60;99.90
4431;DHT22;2228;48.140;11.488;2023-04-01T14:26:13;8.70;99.90
4431;DHT22;2228;48.140;11.488;2023-04-01T14:28:52;8.80;99.90
4431;DHT22;2228;48.140;11.488;2023-04-01T14:31:55;8.90;99.90
4431;DHT22;2228;48.140;11.488;2023-04-01T14:34:37;8.80;99.90
4431;DHT22;2228;48.140;11.488;2023-04-01T14:37:33;9.00;99.90
4431;DHT22;2228;48.140;11.488;2023-04-01T14:40:26;9.00;99.90
4431;DHT22;2228;48.140;11.488;2023-04-01T14:46:17;9.10;99.90
4431;DHT22;2228;48.140;11.488;2023-04-01T14:48:56;9.00;99.90
4431;DHT22;2228;48.140;11.488;2023-04-01T14:51:30;9.10;99.90
4431;DHT22;2228;48.140;11.488;2023-04-01T14:54:04;9.00;99.90
4431;DHT22;2228;48.140;11.488;2023-04-01T14:56:42;8.80;99.90
4431;DHT22;2228;48.140;11.488;2023-04-01T14:59:14;8.90;99.90
4431;DHT22;2228;48.140;11.488;2023-04-01T15:01:47;8.80;1.00
4431;DHT22;2228;48.140;11.488;2023-04-01T15:04:44;8.80;99.90
4431;DHT22;2228;48.140;11.488;2023-04-01T15:07:31;8.60;99.90
4431;DHT22;2228;48.140;11.488;2023-04-01T15:10:06;8.60;99.90
4431;DHT22;2228;48.140;11.488;2023-04-01T15:12:40;8.70;99.90
4431;DHT22;2228;48.140;11.488;2023-04-01T15:15:30;8.50;1.00
4431;DHT22;2228;48.140;11.488;2023-04-01T15:18:08;8.60;99.90
4431;DHT22;2228;48.140;11.488;2023-04-01T15:21:01;8.70;99.90
4431;DHT22;2228;48.140;11.488;2023-04-01T15:23:51;8.70;99.90
4431;DHT22;2228;48.140;11.488;2023-04-01T15:30:22;8.80;99.90
4431;DHT22;2228;48.140;11.488;2023-04-01T15:33:13;9.00;99.90
4431;DHT22;2228;48.140;11.488;2023-04-01T15:35:48;9.10;63.50
4431;DHT22;2228;48.140;11.488;2023-04-01T15:38:28;9.30;99.90
4431;DHT22;2228;48.140;11.488;2023-04-01T15:41:03;9.40;78.30
4431;DHT22;2228;48.140;11.488;2023-04-01T15:43:40;9.40;8.20
4431;DHT22;2228;48.140;11.488;2023-04-01T15:46:19;9.40;1.00
4431;DHT22;2228;48.140;11.488;2023-04-01T15:49:03;9.50;1.00
4431;DHT22;2228;48.140;11.488;2023-04-01T15:52:02;9.70;6.80
4431;DHT22;2228;48.140;11.488;2023-04-01T15:54:50;10.00;1.00
4431;DHT22;2228;48.140;11.488;2023-04-01T15:57:28;10.30;1.00
4431;DHT22;2228;48.140;11.488;2023-04-01T16:00:13;10.20;1.00
4431;DHT22;2228;48.140;11.488;2023-04-01T16:02:48;10.40;1.00
4431;DHT22;2228;48.140;11.488;2023-04-01T16:05:26;10.50;1.00
4431;DHT22;2228;48.140;11.488;2023-04-01T16:08:10;10.50;1.00
4431;DHT22;2228;48.140;11.488;2023-04-01T16:10:56;10.50;1.00
4431;DHT22;2228;48.140;11.488;2023-04-01T16:13:34;10.50;1.00
4431;DHT22;2228;48.140;11.488;2023-04-01T16:16:11;10.50;1.00
4431;DHT22;2228;48.140;11.488;2023-04-01T16:18:51;10.30;1.00
4431;DHT22;2228;48.140;11.488;2023-04-01T16:21:35;10.30;1.00
4431;DHT22;2228;48.140;11.488;2023-04-01T16:24:10;10.20;1.00
4431;DHT22;2228;48.140;11.488;2023-04-01T16:26:47;10.20;1.00
4431;DHT22;2228;48.140;11.488;2023-04-01T16:29:22;10.20;1.00
4431;DHT22;2228;48.140;11.488;2023-04-01T16:31:54;10.00;1.00
4431;DHT22;2228;48.140;11.488;2023-04-01T16:34:30;10.10;1.00
4431;DHT22;2228;48.140;11.488;2023-04-01T16:37:07;10.20;1.00
4431;DHT22;2228;48.140;11.488;2023-04-01T16:39:44;10.00;1.00
4431;DHT22;2228;48.140;11.488;2023-04-01T16:42:24;10.20;1.00
4431;DHT22;2228;48.140;11.488;2023-04-01T16:44:55;10.00;1.00
4431;DHT22;2228;48.140;11.488;2023-04-01T16:47:29;9.90;1.00
4431;DHT22;2228;48.140;11.488;2023-04-01T16:49:59;9.80;1.00
4431;DHT22;2228;48.140;11.488;2023-04-01T16:52:43;9.80;1.00
4431;DHT22;2228;48.140;11.488;2023-04-01T16:55:16;9.70;1.00
4431;DHT22;2228;48.140;11.488;2023-04-01T16:57:50;9.60;1.00
4431;DHT22;2228;48.140;11.488;2023-04-01T17:00:23;9.60;1.00
4431;DHT22;2228;48.140;11.488;2023-04-01T17:03:01;9.60;1.00
4431;DHT22;2228;48.140;11.488;2023-04-01T17:05:40;9.50;1.00
4431;DHT22;2228;48.140;11.488;2023-04-01T17:08:17;9.60;1.00
4431;DHT22;2228;48.140;11.488;2023-04-01T17:10:51;9.60;1.00
4431;DHT22;2228;48.140;11.488;2023-04-01T17:13:38;9.60;1.00
4431;DHT22;2228;48.140;11.488;2023-04-01T17:16:20;9.80;1.00
4431;DHT22;2228;48.140;11.488;2023-04-01T17:18:59;9.70;1.00
4431;DHT22;2228;48.140;11.488;2023-04-01T17:21:43;9.60;1.00
4431;DHT22;2228;48.140;11.488;2023-04-01T17:24:25;9.60;1.00
4431;DHT22;2228;48.140;11.488;2023-04-01T17:27:01;9.60;1.00
4431;DHT22;2228;48.140;11.488;2023-04-01T17:29:37;9.50;1.00
4431;DHT22;2228;48.140;11.488;2023-04-01T17:32:11;9.50;1.00
4431;DHT22;2228;48.140;11.488;2023-04-01T17:34:50;9.50;1.00
4431;DHT22;2228;48.140;11.488;2023-04-01T17:37:30;9.60;1.00
4431;DHT22;2228;48.140;11.488;2023-04-01T17:40:27;9.50;1.00
4431;DHT22;2228;48.140;11.488;2023-04-01T17:43:00;9.40;1.00
4431;DHT22;2228;48.140;11.488;2023-04-01T17:45:37;9.30;1.00
4431;DHT22;2228;48.140;11.488;2023-04-01T17:48:18;9.40;1.00
4431;DHT22;2228;48.140;11.488;2023-04-01T17:51:02;9.50;1.00
4431;DHT22;2228;48.140;11.488;2023-04-01T17:53:36;9.40;1.00
4431;DHT22;2228;48.140;11.488;2023-04-01T17:56:16;9.30;1.00
4431;DHT22;2228;48.140;11.488;2023-04-01T17:58:48;9.40;1.00
4431;DHT22;2228;48.140;11.488;2023-04-01T18:01:39;9.40;1.00
4431;DHT22;2228;48.140;11.488;2023-04-01T18:04:29;9.50;1.00
4431;DHT22;2228;48.140;11.488;2023-04-01T18:07:17;9.60;1.00
4431;DHT22;2228;48.140;11.488;2023-04-01T18:10:00;9.60;1.00
4431;DHT22;2228;48.140;11.488;2023-04-01T18:12:34;9.60;1.00
4431;DHT22;2228;48.140;11.488;2023-04-01T18:15:22;9.60;1.00
4431;DHT22;2228;48.140;11.488;2023-04-01T18:18:10;9.50;1.00
4431;DHT22;2228;48.140;11.488;2023-04-01T18:20:44;9.50;1.00